createdAt,value
2017-07-06T00:00:03.140Z,57.50
2017-07-06T00:02:30.609Z,57.47
2017-07-06T00:04:58.031Z,56.77
2017-07-06T00:07:25.464Z,56.93
2017-07-06T00:09:52.869Z,57.33
2017-07-06T00:12:20.316Z,57.32
2017-07-06T00:14:47.720Z,57.31
2017-07-06T00:17:15.179Z,57.30
2017-07-06T00:19:42.656Z,57.38
2017-07-06T00:22:10.096Z,57.37
2017-07-06T00:24:37.504Z,57.43
2017-07-06T00:27:04.942Z,57.40
2017-07-06T00:29:32.352Z,58.10
2017-07-06T00:31:59.832Z,58.33
2017-07-06T00:34:27.304Z,58.13
2017-07-06T00:36:54.723Z,58.29
2017-07-06T00:39:22.172Z,58.25
2017-07-06T00:41:49.582Z,58.33
2017-07-06T00:44:16.985Z,58.33
2017-07-06T00:46:44.425Z,59.21
2017-07-06T00:49:11.853Z,59.38
2017-07-06T00:51:39.279Z,59.91
2017-07-06T00:54:07.315Z,60.27
2017-07-06T00:56:34.820Z,60.33
2017-07-06T00:59:02.288Z,60.70
2017-07-06T01:01:29.705Z,61.11
2017-07-06T01:03:57.153Z,60.79
2017-07-06T01:06:24.585Z,59.95
2017-07-06T01:08:52.765Z,59.93
2017-07-06T01:11:20.205Z,60.06
2017-07-06T01:13:47.656Z,60.07
2017-07-06T01:16:15.114Z,59.92
2017-07-06T01:18:42.512Z,60.24
2017-07-06T01:21:09.922Z,60.25
2017-07-06T01:23:37.384Z,60.29
2017-07-06T01:26:04.820Z,60.36
2017-07-06T01:28:32.238Z,60.56
2017-07-06T01:30:59.665Z,60.72
2017-07-06T01:33:27.079Z,60.91
2017-07-06T01:35:54.507Z,61.21
2017-07-06T01:38:21.948Z,61.07
2017-07-06T01:40:49.374Z,61.11
2017-07-06T01:43:17.657Z,60.94
2017-07-06T01:45:45.106Z,61.29
2017-07-06T01:48:12.542Z,61.14
2017-07-06T01:50:39.972Z,61.67
2017-07-06T01:53:07.375Z,61.54
2017-07-06T01:55:34.820Z,61.84
2017-07-06T01:58:02.304Z,62.18
2017-07-06T02:00:29.733Z,62.50
2017-07-06T02:02:57.177Z,62.55
2017-07-06T02:05:24.780Z,63.57
2017-07-06T02:07:52.183Z,62.93
2017-07-06T02:10:19.637Z,62.45
2017-07-06T02:12:47.076Z,62.45
2017-07-06T02:15:14.496Z,62.70
2017-07-06T02:17:41.977Z,62.82
2017-07-06T02:20:09.377Z,62.75
2017-07-06T02:22:36.820Z,62.80
2017-07-06T02:25:04.273Z,63.13
2017-07-06T02:27:31.697Z,63.78
2017-07-06T02:29:59.175Z,63.99
2017-07-06T02:32:26.627Z,63.97
2017-07-06T02:34:54.104Z,63.75
2017-07-06T02:37:21.519Z,63.52
2017-07-06T02:39:48.930Z,63.40
2017-07-06T02:42:17.171Z,63.79
2017-07-06T02:44:44.604Z,63.08
2017-07-06T02:47:12.044Z,63.38
2017-07-06T02:49:39.458Z,63.78
2017-07-06T02:52:07.040Z,64.01
2017-07-06T02:54:34.496Z,64.18
2017-07-06T02:57:01.920Z,64.36
2017-07-06T02:59:29.327Z,63.97
2017-07-06T03:01:56.800Z,63.98
2017-07-06T03:04:24.216Z,63.88
2017-07-06T03:06:51.655Z,63.89
2017-07-06T03:09:19.072Z,63.99
2017-07-06T03:11:46.524Z,64.56
2017-07-06T03:14:13.925Z,64.82
2017-07-06T03:16:41.341Z,64.68
2017-07-06T03:19:08.896Z,65.15
2017-07-06T03:21:36.304Z,65.07
2017-07-06T03:24:04.361Z,65.13
2017-07-06T03:26:31.756Z,65.12
2017-07-06T03:28:59.221Z,64.71
2017-07-06T03:31:26.649Z,64.65
2017-07-06T03:33:54.053Z,64.51
2017-07-06T03:36:21.456Z,64.06
2017-07-06T03:38:48.891Z,64.49
2017-07-06T03:41:16.325Z,64.43
2017-07-06T03:43:43.813Z,64.22
2017-07-06T03:46:11.237Z,64.20
2017-07-06T03:48:38.652Z,63.99
2017-07-06T03:51:06.094Z,64.18
2017-07-06T03:53:33.493Z,64.81
2017-07-06T03:56:00.943Z,64.96
2017-07-06T03:58:28.344Z,64.72
2017-07-06T04:00:55.937Z,64.74
2017-07-06T04:03:23.477Z,64.51
2017-07-06T04:05:50.965Z,64.24
2017-07-06T04:08:18.360Z,63.90
2017-07-06T04:10:45.766Z,64.15
2017-07-06T04:13:13.201Z,63.93
2017-07-06T04:15:40.611Z,64.33
2017-07-06T04:18:08.032Z,65.17
2017-07-06T04:20:35.546Z,65.49
2017-07-06T04:23:03.005Z,65.91
2017-07-06T04:25:30.464Z,66.12
2017-07-06T04:27:57.909Z,66.72
2017-07-06T04:30:25.396Z,67.47
2017-07-06T04:32:52.849Z,67.75
2017-07-06T04:35:20.278Z,67.30
2017-07-06T04:37:47.765Z,66.63
2017-07-06T04:40:15.188Z,66.73
2017-07-06T04:42:42.636Z,66.88
2017-07-06T04:45:10.044Z,66.92
2017-07-06T04:47:37.485Z,66.68
2017-07-06T04:50:04.923Z,66.61
2017-07-06T04:52:32.336Z,66.71
2017-07-06T04:54:59.784Z,66.96
2017-07-06T04:57:27.219Z,66.75
2017-07-06T04:59:54.664Z,66.64
2017-07-06T05:02:22.080Z,66.65
2017-07-06T05:04:49.579Z,66.94
2017-07-06T05:07:16.997Z,66.48
2017-07-06T05:09:44.426Z,65.67
2017-07-06T05:12:11.859Z,65.41
2017-07-06T05:14:39.301Z,65.21
2017-07-06T05:17:06.772Z,65.42
2017-07-06T05:19:34.197Z,65.61
2017-07-06T05:22:01.659Z,65.37
2017-07-06T05:24:29.109Z,66.19
2017-07-06T05:26:56.506Z,65.87
2017-07-06T05:29:23.940Z,65.36
2017-07-06T05:31:52.005Z,65.85
2017-07-06T05:34:19.505Z,65.59
2017-07-06T05:36:46.984Z,66.10
2017-07-06T05:39:14.403Z,66.35
2017-07-06T05:41:41.830Z,66.75
2017-07-06T05:44:09.288Z,66.74
2017-07-06T05:46:36.696Z,67.46
2017-07-06T05:49:04.169Z,67.18
2017-07-06T05:51:31.681Z,67.10
2017-07-06T05:53:59.284Z,66.46
2017-07-06T05:56:26.792Z,65.40
2017-07-06T05:58:54.276Z,65.22
2017-07-06T06:01:21.793Z,65.26
2017-07-06T06:03:49.283Z,65.52
2017-07-06T06:09:12.420Z,64.86
2017-07-06T06:11:39.825Z,63.90
2017-07-06T06:14:07.259Z,64.47
2017-07-06T06:16:34.711Z,63.83
2017-07-06T06:19:02.134Z,64.58
2017-07-06T06:21:29.596Z,64.24
2017-07-06T06:23:57.045Z,64.69
2017-07-06T06:26:24.459Z,63.92
2017-07-06T06:28:52.236Z,63.45
2017-07-06T06:31:19.694Z,63.65
2017-07-06T06:33:47.192Z,63.36
2017-07-06T06:36:14.789Z,63.51
2017-07-06T06:38:42.361Z,62.92
2017-07-06T06:41:09.776Z,62.66
2017-07-06T06:43:37.193Z,61.85
2017-07-06T06:46:04.625Z,61.92
2017-07-06T06:48:32.062Z,61.50
2017-07-06T06:50:59.483Z,61.14
2017-07-06T06:53:26.927Z,60.39
2017-07-06T06:55:54.364Z,60.64
2017-07-06T06:58:21.796Z,61.21
2017-07-06T07:00:49.267Z,60.95
2017-07-06T07:03:16.908Z,60.73
2017-07-06T07:05:44.349Z,60.26
2017-07-06T07:08:11.784Z,60.08
2017-07-06T07:10:39.195Z,58.80
2017-07-06T07:13:06.664Z,59.29
2017-07-06T07:15:34.117Z,58.21
2017-07-06T07:18:01.541Z,56.10
2017-07-06T07:20:28.977Z,55.68
2017-07-06T07:22:56.388Z,56.12
2017-07-06T07:25:23.802Z,55.92
2017-07-06T07:27:51.229Z,56.79
2017-07-06T07:30:18.671Z,54.46
2017-07-06T07:32:46.141Z,52.84
2017-07-06T07:35:13.581Z,52.64
2017-07-06T07:37:40.995Z,52.67
2017-07-06T07:40:08.456Z,50.85
2017-07-06T07:42:35.867Z,49.83
2017-07-06T07:45:03.303Z,48.37
2017-07-06T07:47:30.869Z,48.02
2017-07-06T07:49:58.434Z,49.00
2017-07-06T07:52:25.862Z,47.46
2017-07-06T07:54:53.300Z,47.19
2017-07-06T07:57:20.760Z,48.23
2017-07-06T07:59:48.183Z,47.91
2017-07-06T08:02:15.640Z,47.38
2017-07-06T08:04:43.075Z,47.17
2017-07-06T08:07:10.680Z,47.14
2017-07-06T08:09:38.173Z,48.25
2017-07-06T08:12:05.605Z,47.02
2017-07-06T08:14:33.032Z,49.13
2017-07-06T08:17:00.494Z,49.03
2017-07-06T08:19:27.913Z,46.28
2017-07-06T08:21:55.353Z,47.48
2017-07-06T08:24:22.753Z,46.30
2017-07-06T08:26:50.289Z,46.96
2017-07-06T08:29:17.849Z,47.59
2017-07-06T08:31:45.253Z,44.79
2017-07-06T08:34:12.671Z,45.83
2017-07-06T08:36:40.112Z,44.08
2017-07-06T08:39:07.540Z,45.78
2017-07-06T08:41:34.999Z,46.29
2017-07-06T08:44:02.410Z,43.18
2017-07-06T08:46:29.961Z,42.54
2017-07-06T08:48:57.397Z,43.01
2017-07-06T08:51:25.113Z,43.33
2017-07-06T08:53:52.548Z,44.15
2017-07-06T08:56:19.992Z,42.40
2017-07-06T08:58:47.401Z,43.15
2017-07-06T09:01:14.856Z,41.28
2017-07-06T09:03:42.272Z,41.39
2017-07-06T09:06:09.821Z,41.13
2017-07-06T09:08:37.351Z,40.54
2017-07-06T09:11:04.749Z,42.18
2017-07-06T09:13:32.182Z,43.37
2017-07-06T09:15:59.625Z,43.39
2017-07-06T09:18:27.064Z,42.12
2017-07-06T09:20:54.480Z,40.53
2017-07-06T09:23:21.928Z,42.30
2017-07-06T09:25:49.388Z,40.56
2017-07-06T09:28:16.802Z,40.83
2017-07-06T09:30:44.261Z,38.81
2017-07-06T09:33:11.695Z,39.58
2017-07-06T09:35:39.114Z,38.71
2017-07-06T09:38:06.564Z,38.68
2017-07-06T09:40:34.065Z,37.64
2017-07-06T09:43:01.467Z,38.59
2017-07-06T09:45:29.024Z,36.67
2017-07-06T09:47:56.475Z,39.28
2017-07-06T09:50:23.939Z,35.42
2017-07-06T09:52:51.371Z,35.05
2017-07-06T09:55:18.800Z,37.91
2017-07-06T09:57:46.229Z,36.27
2017-07-06T10:00:13.682Z,35.67
2017-07-06T10:02:41.109Z,36.32
2017-07-06T10:05:08.522Z,37.55
2017-07-06T10:07:35.993Z,37.32
2017-07-06T10:10:03.398Z,36.82
2017-07-06T10:12:30.827Z,35.38
2017-07-06T10:14:58.388Z,35.31
2017-07-06T10:17:25.812Z,36.28
2017-07-06T10:19:53.238Z,33.44
2017-07-06T10:22:21.215Z,34.87
2017-07-06T10:24:48.713Z,37.30
2017-07-06T10:27:16.156Z,34.86
2017-07-06T10:29:43.653Z,32.78
2017-07-06T10:32:11.059Z,33.75
2017-07-06T10:34:38.526Z,35.88
2017-07-06T10:37:05.957Z,32.41
2017-07-06T10:39:33.402Z,34.47
2017-07-06T10:42:00.855Z,34.89
2017-07-06T10:49:47.533Z,32.70
2017-07-06T10:52:14.981Z,31.67
2017-07-06T10:54:42.467Z,30.44
2017-07-06T10:57:09.906Z,31.21
2017-07-06T10:59:37.325Z,30.58
2017-07-06T11:02:04.857Z,32.04
2017-07-06T11:04:32.392Z,31.50
2017-07-06T11:06:59.832Z,30.12
2017-07-06T11:09:27.293Z,30.01
2017-07-06T11:11:54.715Z,31.27
2017-07-06T11:14:22.158Z,29.11
2017-07-06T11:16:49.582Z,30.80
2017-07-06T11:19:17.033Z,30.51
2017-07-06T11:21:44.443Z,30.80
2017-07-06T11:24:12.157Z,31.02
2017-07-06T11:26:39.633Z,30.74
2017-07-06T11:29:07.078Z,29.83
2017-07-06T11:31:34.578Z,28.05
2017-07-06T11:34:02.012Z,29.08
2017-07-06T11:36:29.500Z,29.32
2017-07-06T11:38:56.942Z,29.94
2017-07-06T11:41:24.404Z,28.97
2017-07-06T11:43:51.808Z,27.00
2017-07-06T11:46:19.283Z,26.63
2017-07-06T11:48:46.689Z,28.86
2017-07-06T11:51:14.995Z,27.91
2017-07-06T11:53:42.470Z,26.19
2017-07-06T11:56:10.167Z,26.85
2017-07-06T11:58:37.642Z,28.46
2017-07-06T12:01:05.085Z,28.58
2017-07-06T12:03:33.294Z,28.74
2017-07-06T12:06:00.765Z,25.74
2017-07-06T12:08:28.278Z,27.82
2017-07-06T12:10:55.797Z,25.35
2017-07-06T12:13:23.239Z,27.18
2017-07-06T12:15:50.652Z,28.32
2017-07-06T12:18:18.112Z,26.00
2017-07-06T12:20:45.561Z,26.71
2017-07-06T12:23:12.964Z,28.23
2017-07-06T12:25:40.405Z,28.96
2017-07-06T12:28:07.817Z,25.80
2017-07-06T12:30:35.257Z,26.94
2017-07-06T12:33:02.692Z,26.23
2017-07-06T12:35:30.128Z,26.08
2017-07-06T12:37:57.579Z,26.51
2017-07-06T12:40:25.045Z,27.32
2017-07-06T12:42:52.468Z,27.91
2017-07-06T12:45:19.906Z,26.73
2017-07-06T12:47:47.345Z,26.88
2017-07-06T12:50:14.756Z,27.26
2017-07-06T12:52:42.224Z,28.26
2017-07-06T12:55:09.665Z,26.80
2017-07-06T12:57:37.072Z,27.46
2017-07-06T13:00:04.525Z,27.50
2017-07-06T13:02:31.965Z,28.39
2017-07-06T13:04:59.448Z,28.40
2017-07-06T13:07:26.881Z,27.29
2017-07-06T13:09:54.348Z,29.08
2017-07-06T13:12:21.785Z,27.58
2017-07-06T13:14:49.300Z,27.86
2017-07-06T13:17:16.794Z,30.08
2017-07-06T13:19:44.230Z,31.79
2017-07-06T13:22:11.688Z,31.76
2017-07-06T13:24:39.118Z,31.49
2017-07-06T13:27:06.552Z,30.59
2017-07-06T13:29:34.002Z,31.40
2017-07-06T13:32:01.422Z,31.88
2017-07-06T13:34:29.825Z,31.37
2017-07-06T13:36:57.297Z,33.18
2017-07-06T13:39:24.745Z,31.92
2017-07-06T13:41:52.240Z,30.40
2017-07-06T13:44:19.637Z,30.73
2017-07-06T13:46:47.155Z,31.30
2017-07-06T13:49:14.580Z,31.97
2017-07-06T13:51:42.010Z,31.59
2017-07-06T13:54:09.486Z,31.37
2017-07-06T14:01:56.323Z,33.09
2017-07-06T14:04:24.232Z,34.44
2017-07-06T14:06:51.695Z,38.31
2017-07-06T14:09:19.107Z,38.75
2017-07-06T14:11:47.226Z,40.11
2017-07-06T14:14:14.691Z,40.19
2017-07-06T14:16:42.197Z,41.36
2017-07-06T14:19:09.794Z,40.88
2017-07-06T14:21:37.293Z,41.05
2017-07-06T14:24:04.706Z,41.60
2017-07-06T14:26:32.190Z,41.18
2017-07-06T14:28:59.628Z,42.32
2017-07-06T14:31:27.082Z,40.62
2017-07-06T14:33:54.546Z,40.37
2017-07-06T14:36:21.968Z,39.23
2017-07-06T14:38:49.434Z,38.79
2017-07-06T14:41:16.841Z,37.39
2017-07-06T14:43:44.264Z,37.80
2017-07-06T14:46:11.700Z,38.40
2017-07-06T14:48:39.134Z,39.07
2017-07-06T14:51:06.586Z,38.45
2017-07-06T14:53:34.127Z,36.03
2017-07-06T14:56:01.723Z,34.12
2017-07-06T14:58:29.171Z,34.92
2017-07-06T15:00:56.643Z,34.79
2017-07-06T15:03:24.159Z,35.37
2017-07-06T15:05:51.730Z,33.92
2017-07-06T15:08:19.234Z,35.06
2017-07-06T15:10:46.779Z,35.95
2017-07-06T15:13:14.197Z,35.37
2017-07-06T15:15:41.666Z,34.80
2017-07-06T15:18:09.153Z,35.90
2017-07-06T15:20:36.609Z,36.14
2017-07-06T15:23:04.065Z,36.24
2017-07-06T15:25:31.500Z,36.76
2017-07-06T15:27:58.910Z,37.39
2017-07-06T15:30:26.328Z,38.14
2017-07-06T15:32:53.757Z,37.37
2017-07-06T15:35:21.230Z,37.89
2017-07-06T15:37:48.747Z,37.70
2017-07-06T15:40:16.244Z,38.62
2017-07-06T15:42:43.705Z,39.09
2017-07-06T15:45:11.217Z,39.42
2017-07-06T15:47:38.680Z,39.03
2017-07-06T15:50:06.118Z,39.60
2017-07-06T15:52:33.528Z,40.38
2017-07-06T15:55:00.980Z,39.25
2017-07-06T15:57:28.404Z,39.41
2017-07-06T15:59:55.806Z,38.24
2017-07-06T16:02:23.267Z,39.09
2017-07-06T16:04:50.960Z,38.68
2017-07-06T16:07:18.405Z,38.66
2017-07-06T16:09:45.825Z,39.39
2017-07-06T16:12:13.274Z,38.77
2017-07-06T16:14:40.691Z,38.09
2017-07-06T16:17:08.095Z,37.88
2017-07-06T16:19:35.529Z,38.74
2017-07-06T16:24:36.928Z,39.54
2017-07-06T16:27:04.381Z,39.53
2017-07-06T16:29:31.885Z,39.24
2017-07-06T16:31:59.361Z,39.17
2017-07-06T16:34:26.802Z,39.15
2017-07-06T16:36:54.236Z,39.41
2017-07-06T16:39:21.686Z,39.21
2017-07-06T16:41:49.097Z,39.46
2017-07-06T16:44:16.512Z,39.23
2017-07-06T16:46:43.956Z,38.57
2017-07-06T16:49:11.376Z,38.08
2017-07-06T16:51:38.836Z,36.84
2017-07-06T16:54:06.240Z,37.55
2017-07-06T16:56:34.481Z,37.68
2017-07-06T16:59:01.933Z,37.86
2017-07-06T17:01:29.375Z,37.57
2017-07-06T17:03:56.836Z,37.66
2017-07-06T17:06:24.310Z,38.02
2017-07-06T17:08:52.692Z,37.31
2017-07-06T17:11:20.146Z,37.38
2017-07-06T17:13:47.559Z,37.58
2017-07-06T17:16:15.020Z,38.13
2017-07-06T17:18:42.473Z,38.26
2017-07-06T17:21:09.892Z,38.20
2017-07-06T17:23:37.429Z,38.36
2017-07-06T17:26:04.932Z,38.46
2017-07-06T17:28:32.347Z,39.22
2017-07-06T17:30:59.836Z,39.27
2017-07-06T17:33:27.279Z,39.35
2017-07-06T17:35:54.694Z,40.01
2017-07-06T17:38:22.124Z,40.60
2017-07-06T17:40:49.583Z,40.62
2017-07-06T17:43:16.993Z,41.16
2017-07-06T17:45:44.434Z,39.08
2017-07-06T17:48:11.864Z,39.42
2017-07-06T17:50:39.414Z,38.62
2017-07-06T17:53:06.872Z,38.32
2017-07-06T17:55:34.359Z,38.04
2017-07-06T17:58:01.832Z,38.61
2017-07-06T18:00:29.274Z,38.62
2017-07-06T18:02:56.749Z,38.37
2017-07-06T18:05:24.205Z,38.73
2017-07-06T18:07:51.634Z,40.08
2017-07-06T18:10:19.062Z,41.65
2017-07-06T18:12:46.525Z,43.51
2017-07-06T18:15:13.949Z,40.17
2017-07-06T18:17:41.385Z,40.12
2017-07-06T18:20:08.820Z,41.64
2017-07-06T18:22:36.341Z,39.41
2017-07-06T18:25:03.833Z,43.17
2017-07-06T18:27:31.302Z,44.22
2017-07-06T18:29:58.758Z,44.20
2017-07-06T18:32:26.216Z,44.85
2017-07-06T18:34:53.937Z,47.22
2017-07-06T18:37:21.375Z,44.54
2017-07-06T18:39:48.840Z,44.71
2017-07-06T18:42:16.263Z,43.35
2017-07-06T18:44:43.697Z,44.39
2017-07-06T18:47:11.149Z,42.85
2017-07-06T18:49:38.594Z,41.55
2017-07-06T18:52:05.998Z,44.64
2017-07-06T18:54:33.453Z,45.27
2017-07-06T18:57:00.872Z,45.63
2017-07-06T18:59:28.313Z,46.41
2017-07-06T19:01:55.771Z,47.06
2017-07-06T19:04:23.203Z,46.94
2017-07-06T19:06:50.659Z,44.88
2017-07-06T19:09:18.140Z,45.61
2017-07-06T19:11:45.581Z,45.53
2017-07-06T19:14:13.066Z,46.42
2017-07-06T19:16:40.489Z,45.31
2017-07-06T19:19:07.926Z,45.66
2017-07-06T19:21:35.374Z,44.82
2017-07-06T19:24:02.793Z,45.48
2017-07-06T19:26:30.224Z,44.85
2017-07-06T19:28:57.653Z,44.66
2017-07-06T19:31:25.097Z,44.28
2017-07-06T19:33:52.505Z,44.74
2017-07-06T19:36:19.981Z,45.38
2017-07-06T19:38:47.532Z,45.29
2017-07-06T19:41:14.998Z,45.68
2017-07-06T19:43:42.488Z,46.30
2017-07-06T19:46:09.885Z,46.35
2017-07-06T19:48:37.332Z,46.52
2017-07-06T19:51:04.750Z,46.55
2017-07-06T19:53:32.168Z,46.63
2017-07-06T19:55:59.958Z,48.21
2017-07-06T19:58:27.358Z,48.97
2017-07-06T20:00:54.858Z,49.44
2017-07-06T20:03:22.304Z,49.54
2017-07-06T20:05:49.772Z,50.16
2017-07-06T20:08:17.203Z,50.25
2017-07-06T20:10:44.621Z,50.62
2017-07-06T20:13:12.065Z,50.41
2017-07-06T20:15:39.485Z,51.08
2017-07-06T20:18:06.950Z,51.35
2017-07-06T20:20:34.373Z,52.06
2017-07-06T20:23:01.804Z,52.17
2017-07-06T20:25:29.265Z,51.84
2017-07-06T20:27:56.687Z,52.16
2017-07-06T20:30:24.086Z,51.97
2017-07-06T20:32:51.576Z,52.53
2017-07-06T20:35:19.048Z,52.70
2017-07-06T20:37:46.519Z,52.81
2017-07-06T20:40:13.965Z,53.32
2017-07-06T20:42:41.367Z,53.90
2017-07-06T20:45:08.831Z,53.55
2017-07-06T20:47:36.624Z,53.81
2017-07-06T20:50:04.069Z,53.84
2017-07-06T20:52:31.539Z,54.07
2017-07-06T20:55:00.198Z,54.19
2017-07-06T20:57:27.678Z,53.97
2017-07-06T20:59:55.088Z,54.18
2017-07-06T21:02:22.517Z,54.89
2017-07-06T21:04:49.978Z,55.35
2017-07-06T21:07:18.096Z,55.20
2017-07-06T21:09:45.612Z,55.50
2017-07-06T21:12:13.054Z,55.12
2017-07-06T21:14:40.499Z,54.80
2017-07-06T21:17:07.972Z,55.06
2017-07-06T21:19:35.395Z,55.95
2017-07-06T21:22:02.806Z,55.95
2017-07-06T21:24:30.287Z,56.54
2017-07-06T21:26:57.755Z,56.55
2017-07-06T21:29:25.258Z,57.02
2017-07-06T21:31:52.692Z,57.96
2017-07-06T21:34:20.139Z,57.76
2017-07-06T21:36:47.565Z,58.94
2017-07-06T21:39:14.995Z,59.42
2017-07-06T21:41:42.408Z,59.49
2017-07-06T21:44:09.812Z,59.79
2017-07-06T21:46:37.277Z,60.02
2017-07-06T21:49:04.695Z,60.02
2017-07-06T21:51:32.142Z,59.62
2017-07-06T21:53:59.548Z,59.53
2017-07-06T21:56:26.985Z,59.39
2017-07-06T21:58:54.434Z,59.58
2017-07-06T22:01:21.854Z,59.54
2017-07-06T22:03:49.289Z,59.84
2017-07-06T22:06:16.752Z,59.59
2017-07-06T22:08:44.157Z,59.42
2017-07-06T22:11:11.616Z,59.39
2017-07-06T22:13:39.025Z,60.12
2017-07-06T22:16:06.456Z,61.14
2017-07-06T22:18:33.896Z,60.51
2017-07-06T22:21:01.905Z,60.94
2017-07-06T22:23:29.481Z,61.03
2017-07-06T22:25:56.900Z,61.54
2017-07-06T22:28:24.332Z,61.26
2017-07-06T22:30:51.772Z,61.71
2017-07-06T22:33:19.209Z,61.14
2017-07-06T22:35:46.704Z,60.61
2017-07-06T22:38:14.125Z,59.91
2017-07-06T22:40:41.549Z,59.18
2017-07-06T22:43:09.036Z,58.57
2017-07-06T22:45:36.473Z,57.87
2017-07-06T22:48:03.936Z,58.11
2017-07-06T22:50:31.357Z,57.51
2017-07-06T22:52:58.789Z,57.04
2017-07-06T22:55:26.201Z,56.84
2017-07-06T22:57:53.642Z,56.03
2017-07-06T23:00:21.113Z,56.25
2017-07-06T23:02:48.515Z,56.56
2017-07-06T23:05:15.939Z,57.71
2017-07-06T23:07:43.365Z,57.64
2017-07-06T23:10:10.808Z,58.53
2017-07-06T23:12:38.240Z,58.60
2017-07-06T23:15:05.696Z,58.64
2017-07-06T23:17:33.126Z,58.74
2017-07-06T23:20:00.540Z,59.85
2017-07-06T23:22:27.994Z,60.18
2017-07-06T23:24:55.417Z,61.47
2017-07-06T23:27:22.844Z,61.49
2017-07-06T23:29:50.291Z,61.58
2017-07-06T23:32:17.845Z,61.80
2017-07-06T23:34:45.271Z,61.72
2017-07-06T23:37:12.705Z,61.93
2017-07-06T23:39:40.206Z,62.56
2017-07-06T23:42:07.616Z,62.02
2017-07-06T23:44:35.062Z,62.25
2017-07-06T23:47:02.462Z,62.18
2017-07-06T23:49:29.933Z,62.63
2017-07-06T23:51:57.357Z,62.49
2017-07-06T23:54:24.762Z,62.19
2017-07-06T23:56:52.220Z,62.49
2017-07-06T23:59:19.637Z,62.36
